X  CloseMetar Aviation Weather Data     KORD Chicago O'hare International

Temperature

54°F Temperature

45°F Dewpoint

72% Humidity



Wind

 8 MPH

13 KM/H

 4 M/S

 7 KTS



250°
West South
West
Current Conditions

Mostly Scattered Clouds Mostly Scattered Clouds
Pressure 1020.32 (hPa) - 30.13 (in)
Visibility 10 (mi) - 16.1 (km)
Airport
Airport-code KORD

Location Chicago O'hare International 10 (mi)

Metar:
KORD 070651Z 25007KT 10SM SCT250 12/07 A3013 RMK AO2 SLP203 T01170072

Time: 10-07-2019 1:51